Fort Worth, Texas
Current Conditions -  °F | °C
As of 5:53 AM on Sunday 21 Dec 2014 (Local Time) from KFTW Reporting Station
Haze Haze  
Wind Chill: 44°   Ceiling: 2400
Heat Index: 48°   Visibility: 4mi
Dew Point: 44°   Wind: 9mph
Humidity: 86%   Direction: 150°SSE
Pressure: 30.09"   Gusts: NA
Location:  32.75°N, 97.33°W
Report Text: KFTW 211153Z 15008KT 4SM BR OVC024 09/07 A3009 RMK AO2 SLP188 70001 T00890067 10089 20089 56012
Loading
Personal Weather Stations






























Interactive Weather Map New forecast layout! Learn more

10-Day Weather Forecast

Advertisements
Track Severe Weather on mobile